sensor_id;sensor_type;location;lat;lon;timestamp;P1;durP1;ratioP1;P2;durP2;ratioP2
35530;SDS011;21637;53.352;-6.356;2023-06-19T00:01:58;9.80;;;6.20;;
35530;SDS011;21637;53.352;-6.356;2023-06-19T00:04:24;12.05;;;6.43;;
35530;SDS011;21637;53.352;-6.356;2023-06-19T00:06:51;12.88;;;6.25;;
35530;SDS011;21637;53.352;-6.356;2023-06-19T00:09:18;9.10;;;6.15;;
35530;SDS011;21637;53.352;-6.356;2023-06-19T00:11:44;10.10;;;6.82;;
35530;SDS011;21637;53.352;-6.356;2023-06-19T00:14:09;14.98;;;6.75;;
35530;SDS011;21637;53.352;-6.356;2023-06-19T00:16:36;8.82;;;6.07;;
35530;SDS011;21637;53.352;-6.356;2023-06-19T00:19:01;10.88;;;6.22;;
35530;SDS011;21637;53.352;-6.356;2023-06-19T00:21:28;8.93;;;5.90;;
35530;SDS011;21637;53.352;-6.356;2023-06-19T00:23:54;8.88;;;5.55;;
35530;SDS011;21637;53.352;-6.356;2023-06-19T00:26:20;10.90;;;6.30;;
35530;SDS011;21637;53.352;-6.356;2023-06-19T00:28:50;8.27;;;5.35;;
35530;SDS011;21637;53.352;-6.356;2023-06-19T00:31:17;8.05;;;5.95;;
35530;SDS011;21637;53.352;-6.356;2023-06-19T00:33:44;7.13;;;5.13;;
35530;SDS011;21637;53.352;-6.356;2023-06-19T00:36:12;6.65;;;5.20;;
35530;SDS011;21637;53.352;-6.356;2023-06-19T00:38:41;8.40;;;5.18;;
35530;SDS011;21637;53.352;-6.356;2023-06-19T00:41:07;12.15;;;6.32;;
35530;SDS011;21637;53.352;-6.356;2023-06-19T00:43:34;11.60;;;6.07;;
35530;SDS011;21637;53.352;-6.356;2023-06-19T00:46:00;9.95;;;6.40;;
35530;SDS011;21637;53.352;-6.356;2023-06-19T00:48:26;10.32;;;6.00;;
35530;SDS011;21637;53.352;-6.356;2023-06-19T00:50:53;10.45;;;5.75;;
35530;SDS011;21637;53.352;-6.356;2023-06-19T00:53:21;7.90;;;5.45;;
35530;SDS011;21637;53.352;-6.356;2023-06-19T00:55:47;9.32;;;5.65;;
35530;SDS011;21637;53.352;-6.356;2023-06-19T00:58:14;9.45;;;6.18;;
35530;SDS011;21637;53.352;-6.356;2023-06-19T01:00:40;14.00;;;6.28;;
35530;SDS011;21637;53.352;-6.356;2023-06-19T01:03:06;7.53;;;4.95;;
35530;SDS011;21637;53.352;-6.356;2023-06-19T01:05:32;7.70;;;5.60;;
35530;SDS011;21637;53.352;-6.356;2023-06-19T01:08:12;7.35;;;5.55;;
35530;SDS011;21637;53.352;-6.356;2023-06-19T01:10:59;7.00;;;5.38;;
35530;SDS011;21637;53.352;-6.356;2023-06-19T01:16:10;8.05;;;5.13;;
35530;SDS011;21637;53.352;-6.356;2023-06-19T01:18:37;9.57;;;5.47;;
35530;SDS011;21637;53.352;-6.356;2023-06-19T01:21:13;9.48;;;5.65;;
35530;SDS011;21637;53.352;-6.356;2023-06-19T01:23:40;9.88;;;5.90;;
35530;SDS011;21637;53.352;-6.356;2023-06-19T01:26:06;13.63;;;6.13;;
35530;SDS011;21637;53.352;-6.356;2023-06-19T01:28:33;8.75;;;5.40;;
35530;SDS011;21637;53.352;-6.356;2023-06-19T01:31:02;8.32;;;5.10;;
35530;SDS011;21637;53.352;-6.356;2023-06-19T01:33:33;9.02;;;4.82;;
35530;SDS011;21637;53.352;-6.356;2023-06-19T01:36:03;10.80;;;5.57;;
35530;SDS011;21637;53.352;-6.356;2023-06-19T01:38:30;8.50;;;5.40;;
35530;SDS011;21637;53.352;-6.356;2023-06-19T01:40:56;9.25;;;5.30;;
35530;SDS011;21637;53.352;-6.356;2023-06-19T01:43:24;9.63;;;5.93;;
35530;SDS011;21637;53.352;-6.356;2023-06-19T01:45:51;8.48;;;4.85;;
35530;SDS011;21637;53.352;-6.356;2023-06-19T01:48:17;11.40;;;5.65;;
35530;SDS011;21637;53.352;-6.356;2023-06-19T01:50:46;7.38;;;4.85;;
35530;SDS011;21637;53.352;-6.356;2023-06-19T01:53:13;12.43;;;5.22;;
35530;SDS011;21637;53.352;-6.356;2023-06-19T01:55:39;9.57;;;5.10;;
35530;SDS011;21637;53.352;-6.356;2023-06-19T01:58:05;11.27;;;5.18;;
35530;SDS011;21637;53.352;-6.356;2023-06-19T02:00:32;7.78;;;4.90;;
35530;SDS011;21637;53.352;-6.356;2023-06-19T02:03:00;7.35;;;4.53;;
35530;SDS011;21637;53.352;-6.356;2023-06-19T02:05:26;11.63;;;5.50;;
35530;SDS011;21637;53.352;-6.356;2023-06-19T02:07:52;10.77;;;5.55;;
35530;SDS011;21637;53.352;-6.356;2023-06-19T02:10:18;10.73;;;5.43;;
35530;SDS011;21637;53.352;-6.356;2023-06-19T02:12:43;9.15;;;5.05;;
35530;SDS011;21637;53.352;-6.356;2023-06-19T02:15:09;10.25;;;5.68;;
35530;SDS011;21637;53.352;-6.356;2023-06-19T02:17:35;10.85;;;5.75;;
35530;SDS011;21637;53.352;-6.356;2023-06-19T02:20:01;10.10;;;5.15;;
35530;SDS011;21637;53.352;-6.356;2023-06-19T02:22:27;11.15;;;5.65;;
35530;SDS011;21637;53.352;-6.356;2023-06-19T02:24:53;11.60;;;5.88;;
35530;SDS011;21637;53.352;-6.356;2023-06-19T02:27:18;10.05;;;5.53;;
35530;SDS011;21637;53.352;-6.356;2023-06-19T02:29:44;12.75;;;5.53;;
35530;SDS011;21637;53.352;-6.356;2023-06-19T02:32:10;8.65;;;4.97;;
35530;SDS011;21637;53.352;-6.356;2023-06-19T02:34:36;12.25;;;5.43;;
35530;SDS011;21637;53.352;-6.356;2023-06-19T02:37:02;9.25;;;5.60;;
35530;SDS011;21637;53.352;-6.356;2023-06-19T02:39:28;7.93;;;5.20;;
35530;SDS011;21637;53.352;-6.356;2023-06-19T02:41:54;10.48;;;5.22;;
35530;SDS011;21637;53.352;-6.356;2023-06-19T02:44:20;8.43;;;5.45;;
35530;SDS011;21637;53.352;-6.356;2023-06-19T02:46:45;7.78;;;5.10;;
35530;SDS011;21637;53.352;-6.356;2023-06-19T02:49:11;9.10;;;5.68;;
35530;SDS011;21637;53.352;-6.356;2023-06-19T02:51:37;6.53;;;5.18;;
35530;SDS011;21637;53.352;-6.356;2023-06-19T02:54:03;7.43;;;4.68;;
35530;SDS011;21637;53.352;-6.356;2023-06-19T02:56:28;9.40;;;5.00;;
35530;SDS011;21637;53.352;-6.356;2023-06-19T02:58:54;10.82;;;5.55;;
35530;SDS011;21637;53.352;-6.356;2023-06-19T03:01:20;7.95;;;4.95;;
35530;SDS011;21637;53.352;-6.356;2023-06-19T03:03:45;7.65;;;5.10;;
35530;SDS011;21637;53.352;-6.356;2023-06-19T03:06:13;10.02;;;5.55;;
35530;SDS011;21637;53.352;-6.356;2023-06-19T03:08:38;10.35;;;4.95;;
35530;SDS011;21637;53.352;-6.356;2023-06-19T03:11:04;6.90;;;4.97;;
35530;SDS011;21637;53.352;-6.356;2023-06-19T03:13:43;7.47;;;5.32;;
35530;SDS011;21637;53.352;-6.356;2023-06-19T03:16:12;9.30;;;5.00;;
35530;SDS011;21637;53.352;-6.356;2023-06-19T03:18:39;7.07;;;4.80;;
35530;SDS011;21637;53.352;-6.356;2023-06-19T03:21:06;12.10;;;5.25;;
35530;SDS011;21637;53.352;-6.356;2023-06-19T03:23:32;10.25;;;5.57;;
35530;SDS011;21637;53.352;-6.356;2023-06-19T03:25:58;10.77;;;5.43;;
35530;SDS011;21637;53.352;-6.356;2023-06-19T03:28:23;15.23;;;5.57;;
35530;SDS011;21637;53.352;-6.356;2023-06-19T03:30:49;8.00;;;5.30;;
35530;SDS011;21637;53.352;-6.356;2023-06-19T03:33:15;10.63;;;5.38;;
35530;SDS011;21637;53.352;-6.356;2023-06-19T03:35:41;8.30;;;5.35;;
35530;SDS011;21637;53.352;-6.356;2023-06-19T03:38:07;8.45;;;5.57;;
35530;SDS011;21637;53.352;-6.356;2023-06-19T03:40:33;14.32;;;6.70;;
35530;SDS011;21637;53.352;-6.356;2023-06-19T03:42:59;11.05;;;5.47;;
35530;SDS011;21637;53.352;-6.356;2023-06-19T03:45:25;11.65;;;6.40;;
35530;SDS011;21637;53.352;-6.356;2023-06-19T03:47:50;12.93;;;5.82;;
35530;SDS011;21637;53.352;-6.356;2023-06-19T03:50:16;11.27;;;6.15;;
35530;SDS011;21637;53.352;-6.356;2023-06-19T03:52:42;10.25;;;5.32;;
35530;SDS011;21637;53.352;-6.356;2023-06-19T03:55:08;11.82;;;5.57;;
35530;SDS011;21637;53.352;-6.356;2023-06-19T03:57:33;13.27;;;5.93;;
35530;SDS011;21637;53.352;-6.356;2023-06-19T03:59:59;9.85;;;5.47;;
35530;SDS011;21637;53.352;-6.356;2023-06-19T04:02:25;12.80;;;5.60;;
35530;SDS011;21637;53.352;-6.356;2023-06-19T04:04:51;9.10;;;5.32;;
35530;SDS011;21637;53.352;-6.356;2023-06-19T04:07:16;15.52;;;6.57;;
35530;SDS011;21637;53.352;-6.356;2023-06-19T04:09:42;12.02;;;5.40;;
35530;SDS011;21637;53.352;-6.356;2023-06-19T04:12:08;8.93;;;5.45;;
35530;SDS011;21637;53.352;-6.356;2023-06-19T04:14:34;8.88;;;4.93;;
35530;SDS011;21637;53.352;-6.356;2023-06-19T04:17:00;11.98;;;4.85;;
35530;SDS011;21637;53.352;-6.356;2023-06-19T04:19:25;10.93;;;5.53;;
35530;SDS011;21637;53.352;-6.356;2023-06-19T04:21:51;11.93;;;5.80;;
35530;SDS011;21637;53.352;-6.356;2023-06-19T04:24:17;11.60;;;5.25;;
35530;SDS011;21637;53.352;-6.356;2023-06-19T04:26:42;12.93;;;5.35;;
35530;SDS011;21637;53.352;-6.356;2023-06-19T04:29:08;10.65;;;5.60;;
35530;SDS011;21637;53.352;-6.356;2023-06-19T04:31:41;9.70;;;4.90;;
35530;SDS011;21637;53.352;-6.356;2023-06-19T04:34:20;7.80;;;4.60;;
35530;SDS011;21637;53.352;-6.356;2023-06-19T04:36:49;8.90;;;5.30;;
35530;SDS011;21637;53.352;-6.356;2023-06-19T04:39:15;10.02;;;5.45;;
35530;SDS011;21637;53.352;-6.356;2023-06-19T04:41:42;11.13;;;5.25;;
35530;SDS011;21637;53.352;-6.356;2023-06-19T04:44:12;7.88;;;4.28;;
35530;SDS011;21637;53.352;-6.356;2023-06-19T04:46:38;10.45;;;5.40;;
35530;SDS011;21637;53.352;-6.356;2023-06-19T04:49:04;9.30;;;4.72;;
35530;SDS011;21637;53.352;-6.356;2023-06-19T04:51:30;9.65;;;5.13;;
35530;SDS011;21637;53.352;-6.356;2023-06-19T04:53:58;7.32;;;4.50;;
35530;SDS011;21637;53.352;-6.356;2023-06-19T04:56:24;6.07;;;4.40;;
35530;SDS011;21637;53.352;-6.356;2023-06-19T04:58:50;5.40;;;4.07;;
35530;SDS011;21637;53.352;-6.356;2023-06-19T05:01:16;10.18;;;4.72;;
35530;SDS011;21637;53.352;-6.356;2023-06-19T05:03:43;9.45;;;4.40;;
35530;SDS011;21637;53.352;-6.356;2023-06-19T05:06:11;10.07;;;4.82;;
35530;SDS011;21637;53.352;-6.356;2023-06-19T05:08:37;7.00;;;4.35;;
35530;SDS011;21637;53.352;-6.356;2023-06-19T05:11:02;11.70;;;4.30;;
35530;SDS011;21637;53.352;-6.356;2023-06-19T05:13:28;11.45;;;4.70;;
35530;SDS011;21637;53.352;-6.356;2023-06-19T05:15:54;8.88;;;4.57;;
35530;SDS011;21637;53.352;-6.356;2023-06-19T05:18:21;8.20;;;4.40;;
35530;SDS011;21637;53.352;-6.356;2023-06-19T05:20:47;10.30;;;4.78;;
35530;SDS011;21637;53.352;-6.356;2023-06-19T05:23:12;6.35;;;4.38;;
35530;SDS011;21637;53.352;-6.356;2023-06-19T05:25:38;7.68;;;4.15;;
35530;SDS011;21637;53.352;-6.356;2023-06-19T05:28:04;8.77;;;4.50;;
35530;SDS011;21637;53.352;-6.356;2023-06-19T05:30:30;8.23;;;4.30;;
35530;SDS011;21637;53.352;-6.356;2023-06-19T05:32:55;9.60;;;4.22;;
35530;SDS011;21637;53.352;-6.356;2023-06-19T05:35:21;10.15;;;4.45;;
35530;SDS011;21637;53.352;-6.356;2023-06-19T05:37:47;6.20;;;4.13;;
35530;SDS011;21637;53.352;-6.356;2023-06-19T05:40:13;9.25;;;4.63;;
35530;SDS011;21637;53.352;-6.356;2023-06-19T05:42:39;9.82;;;4.07;;
35530;SDS011;21637;53.352;-6.356;2023-06-19T05:45:06;9.27;;;3.72;;
35530;SDS011;21637;53.352;-6.356;2023-06-19T05:47:32;6.38;;;3.17;;
35530;SDS011;21637;53.352;-6.356;2023-06-19T05:49:58;6.05;;;3.30;;
35530;SDS011;21637;53.352;-6.356;2023-06-19T05:52:24;5.75;;;3.47;;
35530;SDS011;21637;53.352;-6.356;2023-06-19T05:54:49;5.97;;;3.72;;
35530;SDS011;21637;53.352;-6.356;2023-06-19T05:57:16;7.28;;;3.40;;
35530;SDS011;21637;53.352;-6.356;2023-06-19T05:59:45;10.80;;;3.55;;
35530;SDS011;21637;53.352;-6.356;2023-06-19T06:02:12;7.10;;;3.83;;
35530;SDS011;21637;53.352;-6.356;2023-06-19T06:04:38;6.60;;;3.55;;
35530;SDS011;21637;53.352;-6.356;2023-06-19T06:07:03;9.13;;;3.25;;
35530;SDS011;21637;53.352;-6.356;2023-06-19T06:09:29;4.70;;;2.80;;
35530;SDS011;21637;53.352;-6.356;2023-06-19T06:11:55;5.97;;;2.53;;
35530;SDS011;21637;53.352;-6.356;2023-06-19T06:14:21;6.47;;;3.05;;
35530;SDS011;21637;53.352;-6.356;2023-06-19T06:16:46;7.90;;;3.22;;
35530;SDS011;21637;53.352;-6.356;2023-06-19T06:19:12;6.13;;;2.95;;
35530;SDS011;21637;53.352;-6.356;2023-06-19T06:21:38;6.13;;;3.25;;
35530;SDS011;21637;53.352;-6.356;2023-06-19T06:24:04;6.90;;;3.05;;
35530;SDS011;21637;53.352;-6.356;2023-06-19T06:26:30;4.95;;;2.40;;
35530;SDS011;21637;53.352;-6.356;2023-06-19T06:28:56;5.65;;;2.78;;
35530;SDS011;21637;53.352;-6.356;2023-06-19T06:31:22;7.68;;;3.20;;
35530;SDS011;21637;53.352;-6.356;2023-06-19T06:33:48;10.10;;;2.80;;
35530;SDS011;21637;53.352;-6.356;2023-06-19T06:36:17;6.40;;;2.90;;
35530;SDS011;21637;53.352;-6.356;2023-06-19T06:38:43;5.72;;;3.05;;
35530;SDS011;21637;53.352;-6.356;2023-06-19T06:41:09;5.88;;;2.40;;
35530;SDS011;21637;53.352;-6.356;2023-06-19T06:43:35;5.70;;;2.65;;
35530;SDS011;21637;53.352;-6.356;2023-06-19T06:46:00;7.57;;;2.85;;
35530;SDS011;21637;53.352;-6.356;2023-06-19T06:48:26;8.00;;;2.67;;
35530;SDS011;21637;53.352;-6.356;2023-06-19T06:50:52;4.43;;;2.83;;
35530;SDS011;21637;53.352;-6.356;2023-06-19T06:53:24;6.30;;;2.60;;
35530;SDS011;21637;53.352;-6.356;2023-06-19T06:55:51;3.20;;;2.10;;
35530;SDS011;21637;53.352;-6.356;2023-06-19T06:58:17;7.47;;;2.45;;
35530;SDS011;21637;53.352;-6.356;2023-06-19T07:00:43;4.75;;;2.65;;
35530;SDS011;21637;53.352;-6.356;2023-06-19T07:03:10;5.78;;;2.42;;
35530;SDS011;21637;53.352;-6.356;2023-06-19T07:05:36;4.43;;;2.47;;
35530;SDS011;21637;53.352;-6.356;2023-06-19T07:08:02;6.70;;;2.72;;
35530;SDS011;21637;53.352;-6.356;2023-06-19T07:10:29;5.07;;;2.22;;
35530;SDS011;21637;53.352;-6.356;2023-06-19T07:12:55;4.18;;;2.17;;
35530;SDS011;21637;53.352;-6.356;2023-06-19T07:15:21;5.65;;;2.40;;
35530;SDS011;21637;53.352;-6.356;2023-06-19T07:17:46;7.28;;;2.45;;
35530;SDS011;21637;53.352;-6.356;2023-06-19T07:20:12;5.18;;;2.20;;
35530;SDS011;21637;53.352;-6.356;2023-06-19T07:22:39;5.47;;;2.10;;
35530;SDS011;21637;53.352;-6.356;2023-06-19T07:25:05;4.93;;;2.10;;
35530;SDS011;21637;53.352;-6.356;2023-06-19T07:27:31;4.93;;;2.15;;
35530;SDS011;21637;53.352;-6.356;2023-06-19T07:29:57;2.83;;;2.00;;
35530;SDS011;21637;53.352;-6.356;2023-06-19T07:32:23;5.53;;;2.67;;
35530;SDS011;21637;53.352;-6.356;2023-06-19T07:34:48;5.97;;;2.33;;
35530;SDS011;21637;53.352;-6.356;2023-06-19T07:37:14;3.13;;;2.40;;
35530;SDS011;21637;53.352;-6.356;2023-06-19T07:39:43;9.57;;;2.33;;
35530;SDS011;21637;53.352;-6.356;2023-06-19T07:42:14;6.88;;;2.60;;
35530;SDS011;21637;53.352;-6.356;2023-06-19T07:44:41;6.68;;;2.28;;
35530;SDS011;21637;53.352;-6.356;2023-06-19T07:47:07;4.50;;;1.80;;
35530;SDS011;21637;53.352;-6.356;2023-06-19T07:49:33;6.53;;;2.67;;
35530;SDS011;21637;53.352;-6.356;2023-06-19T07:51:59;4.47;;;2.08;;
35530;SDS011;21637;53.352;-6.356;2023-06-19T07:54:25;4.57;;;2.05;;
35530;SDS011;21637;53.352;-6.356;2023-06-19T07:56:51;3.97;;;2.00;;
35530;SDS011;21637;53.352;-6.356;2023-06-19T07:59:17;3.28;;;1.95;;
35530;SDS011;21637;53.352;-6.356;2023-06-19T08:01:43;4.50;;;2.10;;
35530;SDS011;21637;53.352;-6.356;2023-06-19T08:04:09;5.38;;;2.25;;
35530;SDS011;21637;53.352;-6.356;2023-06-19T08:06:35;5.55;;;2.35;;
35530;SDS011;21637;53.352;-6.356;2023-06-19T08:09:01;5.25;;;2.10;;
35530;SDS011;21637;53.352;-6.356;2023-06-19T08:11:27;3.50;;;2.28;;
35530;SDS011;21637;53.352;-6.356;2023-06-19T08:13:54;6.57;;;1.80;;
35530;SDS011;21637;53.352;-6.356;2023-06-19T08:16:20;5.10;;;2.10;;
35530;SDS011;21637;53.352;-6.356;2023-06-19T08:18:46;3.92;;;2.08;;
35530;SDS011;21637;53.352;-6.356;2023-06-19T08:21:12;5.03;;;2.17;;
35530;SDS011;21637;53.352;-6.356;2023-06-19T08:23:38;7.07;;;2.20;;
35530;SDS011;21637;53.352;-6.356;2023-06-19T08:26:05;5.55;;;2.10;;
35530;SDS011;21637;53.352;-6.356;2023-06-19T08:28:32;4.88;;;2.10;;
35530;SDS011;21637;53.352;-6.356;2023-06-19T08:30:58;4.30;;;1.70;;
35530;SDS011;21637;53.352;-6.356;2023-06-19T08:33:24;3.13;;;2.00;;
35530;SDS011;21637;53.352;-6.356;2023-06-19T08:35:50;5.35;;;2.47;;
35530;SDS011;21637;53.352;-6.356;2023-06-19T08:38:16;4.88;;;1.92;;
35530;SDS011;21637;53.352;-6.356;2023-06-19T08:40:42;2.97;;;1.92;;
35530;SDS011;21637;53.352;-6.356;2023-06-19T08:43:10;3.65;;;2.20;;
35530;SDS011;21637;53.352;-6.356;2023-06-19T08:45:36;4.85;;;1.90;;
35530;SDS011;21637;53.352;-6.356;2023-06-19T08:48:02;4.18;;;2.00;;
35530;SDS011;21637;53.352;-6.356;2023-06-19T08:50:32;4.70;;;1.90;;
35530;SDS011;21637;53.352;-6.356;2023-06-19T08:52:58;5.43;;;2.00;;
35530;SDS011;21637;53.352;-6.356;2023-06-19T08:55:24;4.63;;;1.83;;
35530;SDS011;21637;53.352;-6.356;2023-06-19T08:57:50;3.17;;;1.90;;
35530;SDS011;21637;53.352;-6.356;2023-06-19T09:00:24;2.47;;;1.60;;
35530;SDS011;21637;53.352;-6.356;2023-06-19T09:02:52;4.00;;;2.30;;
35530;SDS011;21637;53.352;-6.356;2023-06-19T09:05:23;3.70;;;1.80;;
35530;SDS011;21637;53.352;-6.356;2023-06-19T09:07:54;5.22;;;2.20;;
35530;SDS011;21637;53.352;-6.356;2023-06-19T09:10:22;4.63;;;2.10;;
35530;SDS011;21637;53.352;-6.356;2023-06-19T09:12:58;2.53;;;1.95;;
35530;SDS011;21637;53.352;-6.356;2023-06-19T09:15:33;3.88;;;1.75;;
35530;SDS011;21637;53.352;-6.356;2023-06-19T09:18:03;6.10;;;2.15;;
35530;SDS011;21637;53.352;-6.356;2023-06-19T09:20:29;3.15;;;1.70;;
35530;SDS011;21637;53.352;-6.356;2023-06-19T09:22:56;4.93;;;1.77;;
35530;SDS011;21637;53.352;-6.356;2023-06-19T09:25:22;3.58;;;1.95;;
35530;SDS011;21637;53.352;-6.356;2023-06-19T09:27:49;2.83;;;1.65;;
35530;SDS011;21637;53.352;-6.356;2023-06-19T09:30:15;7.07;;;1.90;;
35530;SDS011;21637;53.352;-6.356;2023-06-19T09:32:41;4.13;;;1.85;;
35530;SDS011;21637;53.352;-6.356;2023-06-19T09:35:07;3.53;;;1.70;;
35530;SDS011;21637;53.352;-6.356;2023-06-19T09:37:33;3.85;;;2.00;;
35530;SDS011;21637;53.352;-6.356;2023-06-19T09:39:59;3.53;;;1.80;;
35530;SDS011;21637;53.352;-6.356;2023-06-19T09:42:33;3.45;;;1.77;;
35530;SDS011;21637;53.352;-6.356;2023-06-19T09:45:03;3.88;;;1.70;;
35530;SDS011;21637;53.352;-6.356;2023-06-19T09:47:44;3.45;;;1.90;;
35530;SDS011;21637;53.352;-6.356;2023-06-19T09:50:12;2.95;;;1.80;;
35530;SDS011;21637;53.352;-6.356;2023-06-19T09:52:39;4.75;;;2.03;;
35530;SDS011;21637;53.352;-6.356;2023-06-19T09:55:07;3.70;;;1.80;;
35530;SDS011;21637;53.352;-6.356;2023-06-19T09:57:34;4.70;;;2.00;;
35530;SDS011;21637;53.352;-6.356;2023-06-19T10:00:03;4.50;;;1.70;;
35530;SDS011;21637;53.352;-6.356;2023-06-19T10:02:38;3.65;;;2.05;;
35530;SDS011;21637;53.352;-6.356;2023-06-19T10:05:06;6.90;;;2.03;;
35530;SDS011;21637;53.352;-6.356;2023-06-19T10:07:37;7.10;;;1.92;;
35530;SDS011;21637;53.352;-6.356;2023-06-19T10:10:07;7.57;;;2.25;;
35530;SDS011;21637;53.352;-6.356;2023-06-19T10:12:43;4.35;;;1.90;;
35530;SDS011;21637;53.352;-6.356;2023-06-19T10:23:09;3.58;;;1.80;;
35530;SDS011;21637;53.352;-6.356;2023-06-19T10:25:38;2.63;;;2.20;;
35530;SDS011;21637;53.352;-6.356;2023-06-19T10:28:18;3.55;;;1.63;;
35530;SDS011;21637;53.352;-6.356;2023-06-19T10:30:44;3.65;;;1.80;;
35530;SDS011;21637;53.352;-6.356;2023-06-19T10:33:10;3.80;;;1.55;;
35530;SDS011;21637;53.352;-6.356;2023-06-19T10:35:39;3.92;;;1.90;;
35530;SDS011;21637;53.352;-6.356;2023-06-19T10:38:09;2.55;;;1.58;;
35530;SDS011;21637;53.352;-6.356;2023-06-19T10:40:38;3.28;;;2.00;;
35530;SDS011;21637;53.352;-6.356;2023-06-19T10:43:04;8.82;;;2.70;;
35530;SDS011;21637;53.352;-6.356;2023-06-19T10:45:30;5.50;;;1.80;;
35530;SDS011;21637;53.352;-6.356;2023-06-19T10:47:56;3.95;;;1.42;;
35530;SDS011;21637;53.352;-6.356;2023-06-19T10:50:24;9.55;;;1.80;;
35530;SDS011;21637;53.352;-6.356;2023-06-19T10:52:52;11.13;;;1.67;;
35530;SDS011;21637;53.352;-6.356;2023-06-19T10:55:20;2.75;;;1.85;;
35530;SDS011;21637;53.352;-6.356;2023-06-19T10:57:46;9.95;;;2.03;;
35530;SDS011;21637;53.352;-6.356;2023-06-19T11:00:23;2.95;;;1.75;;
35530;SDS011;21637;53.352;-6.356;2023-06-19T11:02:49;3.28;;;1.52;;
35530;SDS011;21637;53.352;-6.356;2023-06-19T11:05:15;2.88;;;1.30;;
35530;SDS011;21637;53.352;-6.356;2023-06-19T11:07:40;5.03;;;1.52;;
35530;SDS011;21637;53.352;-6.356;2023-06-19T11:10:07;4.57;;;1.30;;
35530;SDS011;21637;53.352;-6.356;2023-06-19T11:12:43;2.05;;;1.30;;
35530;SDS011;21637;53.352;-6.356;2023-06-19T11:15:09;2.65;;;1.52;;
35530;SDS011;21637;53.352;-6.356;2023-06-19T11:17:35;3.17;;;1.50;;
35530;SDS011;21637;53.352;-6.356;2023-06-19T11:20:01;3.83;;;1.40;;
35530;SDS011;21637;53.352;-6.356;2023-06-19T11:22:36;3.28;;;1.50;;
35530;SDS011;21637;53.352;-6.356;2023-06-19T11:25:04;5.38;;;1.60;;
35530;SDS011;21637;53.352;-6.356;2023-06-19T11:27:30;3.47;;;1.45;;
35530;SDS011;21637;53.352;-6.356;2023-06-19T11:29:57;2.00;;;1.58;;
35530;SDS011;21637;53.352;-6.356;2023-06-19T11:32:31;2.13;;;1.60;;
35530;SDS011;21637;53.352;-6.356;2023-06-19T11:35:04;2.60;;;1.40;;
35530;SDS011;21637;53.352;-6.356;2023-06-19T11:37:32;2.95;;;1.60;;
35530;SDS011;21637;53.352;-6.356;2023-06-19T11:39:59;3.08;;;1.50;;
35530;SDS011;21637;53.352;-6.356;2023-06-19T11:42:25;3.03;;;1.95;;
35530;SDS011;21637;53.352;-6.356;2023-06-19T11:45:03;3.17;;;1.80;;
35530;SDS011;21637;53.352;-6.356;2023-06-19T11:47:31;6.32;;;1.98;;
35530;SDS011;21637;53.352;-6.356;2023-06-19T11:50:03;3.05;;;1.60;;
35530;SDS011;21637;53.352;-6.356;2023-06-19T11:52:29;3.28;;;1.70;;
35530;SDS011;21637;53.352;-6.356;2023-06-19T11:54:55;7.10;;;2.13;;
35530;SDS011;21637;53.352;-6.356;2023-06-19T11:57:21;4.90;;;2.05;;
35530;SDS011;21637;53.352;-6.356;2023-06-19T11:59:47;3.33;;;1.85;;
35530;SDS011;21637;53.352;-6.356;2023-06-19T12:02:12;4.47;;;1.80;;
35530;SDS011;21637;53.352;-6.356;2023-06-19T12:04:38;2.80;;;1.63;;
35530;SDS011;21637;53.352;-6.356;2023-06-19T12:07:04;5.05;;;2.20;;
35530;SDS011;21637;53.352;-6.356;2023-06-19T12:09:30;3.20;;;1.75;;
35530;SDS011;21637;53.352;-6.356;2023-06-19T12:11:57;5.05;;;2.20;;
35530;SDS011;21637;53.352;-6.356;2023-06-19T12:14:23;3.72;;;1.85;;
35530;SDS011;21637;53.352;-6.356;2023-06-19T12:16:49;3.53;;;1.30;;
35530;SDS011;21637;53.352;-6.356;2023-06-19T12:19:15;3.42;;;1.70;;
35530;SDS011;21637;53.352;-6.356;2023-06-19T12:21:41;3.88;;;2.00;;
35530;SDS011;21637;53.352;-6.356;2023-06-19T12:24:07;2.95;;;1.90;;
35530;SDS011;21637;53.352;-6.356;2023-06-19T12:26:36;3.90;;;1.80;;
35530;SDS011;21637;53.352;-6.356;2023-06-19T12:29:02;3.63;;;1.67;;
35530;SDS011;21637;53.352;-6.356;2023-06-19T12:31:29;7.10;;;1.90;;
35530;SDS011;21637;53.352;-6.356;2023-06-19T12:33:56;6.78;;;1.75;;
35530;SDS011;21637;53.352;-6.356;2023-06-19T12:36:21;10.02;;;2.40;;
35530;SDS011;21637;53.352;-6.356;2023-06-19T12:38:47;2.03;;;1.50;;
35530;SDS011;21637;53.352;-6.356;2023-06-19T12:41:14;3.33;;;1.58;;
35530;SDS011;21637;53.352;-6.356;2023-06-19T12:43:40;2.80;;;1.30;;
35530;SDS011;21637;53.352;-6.356;2023-06-19T12:46:06;3.75;;;1.92;;
35530;SDS011;21637;53.352;-6.356;2023-06-19T12:48:32;6.68;;;2.20;;
35530;SDS011;21637;53.352;-6.356;2023-06-19T12:50:58;15.48;;;3.08;;
35530;SDS011;21637;53.352;-6.356;2023-06-19T12:53:23;6.10;;;1.80;;
35530;SDS011;21637;53.352;-6.356;2023-06-19T12:55:53;5.25;;;1.77;;
35530;SDS011;21637;53.352;-6.356;2023-06-19T12:58:20;2.92;;;1.80;;
35530;SDS011;21637;53.352;-6.356;2023-06-19T13:00:46;3.60;;;2.42;;
35530;SDS011;21637;53.352;-6.356;2023-06-19T13:03:12;6.78;;;1.98;;
35530;SDS011;21637;53.352;-6.356;2023-06-19T13:05:37;4.28;;;1.65;;
35530;SDS011;21637;53.352;-6.356;2023-06-19T13:08:03;2.40;;;2.00;;
35530;SDS011;21637;53.352;-6.356;2023-06-19T13:10:29;4.78;;;1.50;;
35530;SDS011;21637;53.352;-6.356;2023-06-19T13:12:54;4.88;;;1.63;;
35530;SDS011;21637;53.352;-6.356;2023-06-19T13:15:23;2.35;;;1.33;;
35530;SDS011;21637;53.352;-6.356;2023-06-19T13:17:49;7.18;;;2.10;;
35530;SDS011;21637;53.352;-6.356;2023-06-19T13:20:15;2.45;;;1.70;;
35530;SDS011;21637;53.352;-6.356;2023-06-19T13:22:41;5.03;;;2.00;;
35530;SDS011;21637;53.352;-6.356;2023-06-19T13:25:07;7.00;;;1.60;;
35530;SDS011;21637;53.352;-6.356;2023-06-19T13:27:33;4.18;;;1.50;;
35530;SDS011;21637;53.352;-6.356;2023-06-19T13:29:59;3.80;;;1.50;;
35530;SDS011;21637;53.352;-6.356;2023-06-19T13:32:26;2.47;;;1.30;;
35530;SDS011;21637;53.352;-6.356;2023-06-19T13:34:52;2.28;;;1.70;;
35530;SDS011;21637;53.352;-6.356;2023-06-19T13:37:18;12.00;;;2.15;;
35530;SDS011;21637;53.352;-6.356;2023-06-19T13:39:44;4.63;;;1.50;;
35530;SDS011;21637;53.352;-6.356;2023-06-19T13:42:10;3.28;;;1.40;;
35530;SDS011;21637;53.352;-6.356;2023-06-19T13:44:37;4.25;;;2.50;;
35530;SDS011;21637;53.352;-6.356;2023-06-19T13:47:03;8.23;;;2.13;;
35530;SDS011;21637;53.352;-6.356;2023-06-19T13:49:29;2.38;;;1.38;;
35530;SDS011;21637;53.352;-6.356;2023-06-19T13:51:55;3.60;;;1.50;;
35530;SDS011;21637;53.352;-6.356;2023-06-19T13:54:21;5.00;;;1.50;;
35530;SDS011;21637;53.352;-6.356;2023-06-19T13:56:47;5.57;;;1.25;;
35530;SDS011;21637;53.352;-6.356;2023-06-19T13:59:13;5.03;;;0.95;;
35530;SDS011;21637;53.352;-6.356;2023-06-19T14:01:40;2.75;;;1.52;;
35530;SDS011;21637;53.352;-6.356;2023-06-19T14:04:06;2.88;;;1.40;;
35530;SDS011;21637;53.352;-6.356;2023-06-19T14:06:33;2.67;;;1.10;;
35530;SDS011;21637;53.352;-6.356;2023-06-19T14:08:59;2.38;;;1.30;;
35530;SDS011;21637;53.352;-6.356;2023-06-19T14:11:26;3.08;;;1.15;;
35530;SDS011;21637;53.352;-6.356;2023-06-19T14:13:51;4.13;;;1.05;;
35530;SDS011;21637;53.352;-6.356;2023-06-19T14:16:17;4.53;;;0.98;;
35530;SDS011;21637;53.352;-6.356;2023-06-19T14:18:43;5.88;;;1.08;;
35530;SDS011;21637;53.352;-6.356;2023-06-19T14:21:08;3.85;;;1.00;;
35530;SDS011;21637;53.352;-6.356;2023-06-19T14:23:34;2.35;;;1.30;;
35530;SDS011;21637;53.352;-6.356;2023-06-19T14:26:05;2.20;;;1.17;;
35530;SDS011;21637;53.352;-6.356;2023-06-19T14:28:31;4.13;;;1.50;;
35530;SDS011;21637;53.352;-6.356;2023-06-19T14:30:56;4.38;;;1.30;;
35530;SDS011;21637;53.352;-6.356;2023-06-19T14:33:22;3.15;;;1.35;;
35530;SDS011;21637;53.352;-6.356;2023-06-19T14:35:48;3.78;;;1.38;;
35530;SDS011;21637;53.352;-6.356;2023-06-19T14:38:13;1.60;;;1.00;;
35530;SDS011;21637;53.352;-6.356;2023-06-19T14:40:40;1.65;;;1.20;;